Weather History for Mississippi Canyon, LA

Change the Weather History Date:

Thursday, December 19, 2013

  Actual Average Record
Temperature  
Mean Temperature 71 °F -  
Max Temperature 73 °F - - ()
Min Temperature 69 °F - - ()
Cooling Degree Days 6    
Growing Degree Days 21 (Base 50)    
Moisture  
Dew Point 59 °F    
Average Humidity 65    
Maximum Humidity 78    
Minimum Humidity 57    
Precipitation  
Precipitation 0.00 in - - ()
Sea Level Pressure  
Sea Level Pressure 30.16 in    
Wind  
Wind Speed 22 mph (SSE)    
Max Wind Speed 25 mph    
Max Gust Speed 30 mph    
Visibility 10 miles    
Events      
T = Trace of Precipitation, MM = Missing Value Source: NWS Daily Summary

Daily Weather History Graph

Daily Weather History Graph

Search for Another Location

Airport:

Trip Planner

Search our weather history database for the weather conditions in past years. The results will help you decide how hot, cold, wet, or windy it might be!

Date:

Astronomy

Dec. 19, 2013 Rise Set
Actual Time 6:46 AM CST 5:06 PM CST
Civil Twilight 6:20 AM CST 5:32 PM CST
Nautical Twilight 5:51 AM CST 6:01 PM CST
Astronomical Twilight 5:22 AM CST 6:30 PM CST
Moon 7:22 PM CST (12/19) 8:14 AM CST (12/19)
Length of Visible Light 11h 11m
Length of Day
10h 19m
Waning Gibbous, 95% of the Moon is Illuminated
Dec 19
Waning Gibbous
Dec 25
Last Quarter
Jan 1
New
Jan 7
First Quarter
Jan 15
Full

Hourly Weather History & Observations

Time (CST) Temp. Dew Point Humidity Pressure Visibility Wind Dir Wind Speed Gust Speed Precip Events Conditions
12:15 AM 69.8 °F 57.2 °F 64% 30.23 in 10.0 mi SSE 21.9 mph 27.6 mph N/A   Overcast
12:35 AM 69.8 °F 55.4 °F 60% 30.23 in 10.0 mi SSE 24.2 mph - N/A   Overcast
12:55 AM 69.8 °F 57.2 °F 64% 30.22 in 10.0 mi SSE 23.0 mph - N/A   Overcast
1:15 AM 69.8 °F 57.2 °F 64% 30.22 in 10.0 mi SE 20.7 mph - N/A   Overcast
1:35 AM 69.8 °F 57.2 °F 64% 30.22 in 10.0 mi SSE 20.7 mph - N/A   Overcast
1:55 AM 69.8 °F 57.2 °F 64% 30.21 in 10.0 mi SSE 20.7 mph 26.5 mph N/A   Overcast
2:15 AM 69.8 °F 57.2 °F 64% 30.21 in 10.0 mi SSE 23.0 mph - N/A   Overcast
2:35 AM 69.8 °F 57.2 °F 64% 30.21 in 10.0 mi SSE 25.3 mph - N/A   Overcast
2:55 AM 69.8 °F 57.2 °F 64% 30.21 in 10.0 mi SSE 24.2 mph - N/A   Overcast
3:15 AM 69.8 °F 57.2 °F 64% 30.21 in 10.0 mi SSE 24.2 mph - N/A   Overcast
3:35 AM 69.8 °F 55.4 °F 60% 30.21 in 10.0 mi South 18.4 mph 26.5 mph N/A   Overcast
3:55 AM 69.8 °F 57.2 °F 64% 30.20 in 10.0 mi South 23.0 mph 29.9 mph N/A   Overcast
4:15 AM 69.8 °F 57.2 °F 64% 30.20 in 10.0 mi South 24.2 mph - N/A   Overcast
4:35 AM 69.8 °F 57.2 °F 64% 30.20 in 10.0 mi SSE 24.2 mph - N/A   Overcast
4:55 AM 69.8 °F 55.4 °F 60% 30.19 in 10.0 mi SSE 25.3 mph - N/A   Overcast
5:15 AM 69.8 °F 55.4 °F 60% 30.19 in 10.0 mi South 23.0 mph - N/A   Mostly Cloudy
5:35 AM 69.8 °F 57.2 °F 64% 30.19 in 10.0 mi South 25.3 mph - N/A   Overcast
5:55 AM 69.8 °F 57.2 °F 64% 30.19 in 10.0 mi SSE 21.9 mph 27.6 mph N/A   Overcast
6:15 AM 69.8 °F 57.2 °F 64% 30.19 in 10.0 mi SSE 20.7 mph - N/A   Overcast
6:35 AM 69.8 °F 57.2 °F 64% 30.20 in 10.0 mi South 20.7 mph - N/A   Mostly Cloudy
6:55 AM 71.6 °F 57.2 °F 60% 30.20 in 10.0 mi South 23.0 mph - N/A   Overcast
7:15 AM 71.6 °F 57.2 °F 60% 30.20 in 10.0 mi SSE 23.0 mph - N/A   Mostly Cloudy
7:35 AM 71.6 °F 59.0 °F 64% 30.20 in 10.0 mi SSE 19.6 mph - N/A   Mostly Cloudy
7:55 AM 71.6 °F 60.8 °F 69% 30.20 in 10.0 mi SSE 20.7 mph - N/A   Overcast
8:15 AM 71.6 °F 57.2 °F 60% 30.21 in 10.0 mi South 24.2 mph - N/A   Mostly Cloudy
8:35 AM 71.6 °F 57.2 °F 60% 30.21 in 10.0 mi South 20.7 mph - N/A   Scattered Clouds
8:55 AM 71.6 °F 57.2 °F 60% 30.22 in 10.0 mi South 19.6 mph 25.3 mph N/A   Mostly Cloudy
9:15 AM 73.4 °F 57.2 °F 57% 30.22 in 10.0 mi SSE 20.7 mph - N/A   Mostly Cloudy
9:35 AM 73.4 °F 57.2 °F 57% 30.22 in 10.0 mi SSE 23.0 mph - N/A   Clear
9:55 AM 73.4 °F 59.0 °F 61% 30.23 in 10.0 mi SSE 20.7 mph 26.5 mph N/A   Partly Cloudy
10:15 AM 73.4 °F 59.0 °F 61% 30.22 in 10.0 mi South 23.0 mph - N/A   Partly Cloudy
10:35 AM 73.4 °F 57.2 °F 57% 30.21 in 10.0 mi South 25.3 mph - N/A   Partly Cloudy
10:55 AM 73.4 °F 57.2 °F 57% 30.21 in 10.0 mi South 24.2 mph - N/A   Scattered Clouds
11:15 AM 73.4 °F 57.2 °F 57% 30.20 in 10.0 mi South 23.0 mph - N/A   Clear
11:35 AM 73.4 °F 59.0 °F 61% 30.19 in 10.0 mi South 20.7 mph 27.6 mph N/A   Scattered Clouds
11:55 AM 73.4 °F 59.0 °F 61% 30.18 in 10.0 mi South 24.2 mph - N/A   Scattered Clouds
12:15 PM 71.6 °F 59.0 °F 64% 30.17 in 10.0 mi South 20.7 mph - N/A   Scattered Clouds
12:35 PM 71.6 °F 59.0 °F 64% 30.16 in 10.0 mi South 20.7 mph - N/A   Mostly Cloudy
12:55 PM 71.6 °F 59.0 °F 64% 30.15 in 10.0 mi South 21.9 mph - N/A   Mostly Cloudy
1:15 PM 71.6 °F 59.0 °F 64% 30.14 in - South 20.7 mph - N/A   Unknown
1:35 PM 71.6 °F 60.8 °F 69% 30.13 in 10.0 mi SSE 17.3 mph - N/A   Unknown
1:55 PM 71.6 °F 59.0 °F 64% 30.13 in 10.0 mi South 20.7 mph - N/A   Clear
2:15 PM 71.6 °F 59.0 °F 64% 30.13 in 10.0 mi SSE 20.7 mph - N/A   Partly Cloudy
2:35 PM 71.6 °F 59.0 °F 64% 30.12 in 10.0 mi South 20.7 mph - N/A   Mostly Cloudy
2:55 PM 71.6 °F 59.0 °F 64% 30.11 in 10.0 mi SSE 20.7 mph - N/A   Scattered Clouds
3:15 PM 71.6 °F 59.0 °F 64% 30.12 in 10.0 mi SSE 20.7 mph - N/A   Clear
3:35 PM 71.6 °F 59.0 °F 64% 30.12 in 10.0 mi SSE 18.4 mph - N/A   Clear
3:55 PM 71.6 °F 57.2 °F 60% 30.11 in 10.0 mi SSE 18.4 mph - N/A   Clear
4:15 PM 71.6 °F 59.0 °F 64% 30.11 in 10.0 mi SSE 18.4 mph - N/A   Clear
4:35 PM 71.6 °F 59.0 °F 64% 30.11 in 10.0 mi SSE 18.4 mph - N/A   Clear
4:55 PM 71.6 °F 59.0 °F 64% 30.12 in 10.0 mi SSE 18.4 mph - N/A   Scattered Clouds
5:15 PM 71.6 °F 59.0 °F 64% 30.11 in 10.0 mi SSE 20.7 mph - N/A   Scattered Clouds
5:35 PM 71.6 °F 60.8 °F 69% 30.11 in 10.0 mi SSE 19.6 mph - N/A   Mostly Cloudy
5:55 PM 71.6 °F 60.8 °F 69% 30.11 in 10.0 mi SSE 20.7 mph - N/A   Overcast
6:15 PM 71.6 °F 60.8 °F 69% 30.11 in 10.0 mi SSE 18.4 mph - N/A   Overcast
6:35 PM 71.6 °F 60.8 °F 69% 30.11 in 10.0 mi SSE 19.6 mph - N/A   Overcast
6:55 PM 71.6 °F 62.6 °F 73% 30.12 in 10.0 mi SSE 20.7 mph - N/A   Overcast
7:15 PM 71.6 °F 62.6 °F 73% 30.12 in 10.0 mi SSE 24.2 mph - N/A   Overcast
7:35 PM 71.6 °F 62.6 °F 73% 30.11 in 10.0 mi SSE 24.2 mph - N/A   Mostly Cloudy
7:55 PM 71.6 °F 62.6 °F 73% 30.12 in 10.0 mi SSE 24.2 mph - N/A   Overcast
8:15 PM 73.4 °F 62.6 °F 69% 30.12 in 10.0 mi SSE 23.0 mph - N/A   Mostly Cloudy
8:35 PM 73.4 °F 62.6 °F 69% 30.12 in 10.0 mi SSE 25.3 mph - N/A   Overcast
8:55 PM 73.4 °F 62.6 °F 69% 30.12 in 10.0 mi SSE 24.2 mph - N/A   Overcast
9:15 PM 73.4 °F 64.4 °F 73% 30.11 in 10.0 mi SSE 21.9 mph - N/A   Overcast
9:35 PM 73.4 °F 64.4 °F 73% 30.11 in 10.0 mi SSE 20.7 mph - N/A   Overcast
9:55 PM 73.4 °F 64.4 °F 73% 30.11 in 10.0 mi SSE 21.9 mph - N/A   Overcast
10:15 PM 73.4 °F 64.4 °F 73% 30.10 in 10.0 mi SSE 24.2 mph - N/A   Overcast
10:35 PM 73.4 °F 64.4 °F 73% 30.10 in 10.0 mi SSE 24.2 mph - N/A   Overcast
10:55 PM 73.4 °F 64.4 °F 73% 30.10 in 10.0 mi SSE 21.9 mph - N/A   Mostly Cloudy
11:15 PM 73.4 °F 66.2 °F 78% 30.09 in 10.0 mi SSE 24.2 mph - N/A   Overcast
11:35 PM 73.4 °F 66.2 °F 78% 30.08 in 10.0 mi SSE 24.2 mph - N/A   Mostly Cloudy
11:55 PM 73.4 °F 66.2 °F 78% 30.09 in 10.0 mi SSE 21.9 mph 27.6 mph N/A   Mostly Cloudy